KPLN/PLN METAR and TAF weather

Enter ICAO airport designator
Station Type Date Time Source
KPLN METAR 2019/08/25 06:54 UTC NOAA

KPLN 250654Z AUTO 00000KT 10SM CLR 06/05 A3028 RMK AO2 SLP254 T00610050


Station Type Date Time Source
KPLN Decoded METAR 2019/08/25 06:54 UTC NOAA

Station name not available
Aug 25, 2019 - 02:54 AM EDT / 2019.08.25 0654 UTC
Wind: Calm:0
Visibility: 10 mile(s):0
Sky conditions: clear
Temperature: 43.0 F (6.1 C)
Dew Point: 41.0 F (5.0 C)
Relative Humidity: 92%
Pressure (altimeter): 30.28 in. Hg (1025 hPa)
ob: KPLN 250654Z AUTO 00000KT 10SM CLR 06/05 A3028 RMK AO2 SLP254 T00610050
cycle: 7

Station Type Date Time Source
KPLN TAF 2019/08/25 07:58 UTC NOAA

TAF
AMD KPLN 250656Z 2507/2606 00000KT P6SM SKC
TEMPO 2508/2511 3SM BR FEW001
FM251200 VRB03KT P6SM SKC
FM251700 12007KT P6SM FEW040
FM252300 13007KT P6SM SCT250

Example: see airport list